createdAt,value
2023-06-17T00:00:54.013Z,245.75
2023-06-17T00:01:53.990Z,245.87
2023-06-17T00:02:54.028Z,245.72
2023-06-17T00:03:53.991Z,245.61
2023-06-17T00:04:54.006Z,244.98
2023-06-17T00:05:54.007Z,245.73
2023-06-17T00:06:53.990Z,244.92
2023-06-17T00:07:54.020Z,245.73
2023-06-17T00:08:54.009Z,245.66
2023-06-17T00:09:54.037Z,245.82
2023-06-17T00:10:54.078Z,246.72
2023-06-17T00:11:54.070Z,245.18
2023-06-17T00:12:54.101Z,244.78
2023-06-17T00:13:54.065Z,245.28
2023-06-17T00:14:54.103Z,245.55
2023-06-17T00:15:54.109Z,244.10
2023-06-17T00:16:54.098Z,244.58
2023-06-17T00:17:54.120Z,245.06
2023-06-17T00:18:54.113Z,244.80
2023-06-17T00:19:54.133Z,243.75
2023-06-17T00:20:54.300Z,244.41
2023-06-17T00:21:54.166Z,244.13
2023-06-17T00:22:54.131Z,244.85
2023-06-17T00:23:54.234Z,244.45
2023-06-17T00:24:54.188Z,244.05
2023-06-17T00:25:54.173Z,243.58
2023-06-17T00:26:54.155Z,244.29
2023-06-17T00:27:54.177Z,244.81
2023-06-17T00:28:54.177Z,244.49
2023-06-17T00:29:54.187Z,243.91
2023-06-17T00:30:54.212Z,244.82
2023-06-17T00:31:54.178Z,243.14
2023-06-17T00:32:54.307Z,243.96
2023-06-17T00:33:54.216Z,243.71
2023-06-17T00:34:54.228Z,244.04
2023-06-17T00:35:56.005Z,242.93
2023-06-17T00:36:54.227Z,243.41
2023-06-17T00:37:54.245Z,242.51
2023-06-17T00:38:54.252Z,243.60
2023-06-17T00:39:54.294Z,242.83
2023-06-17T00:40:54.313Z,243.27
2023-06-17T00:41:54.309Z,243.11
2023-06-17T00:42:54.344Z,243.80
2023-06-17T00:43:54.348Z,242.44
2023-06-17T00:44:54.393Z,243.57
2023-06-17T00:45:54.366Z,242.47
2023-06-17T00:46:54.439Z,242.64
2023-06-17T00:47:54.417Z,243.27
2023-06-17T00:48:54.390Z,243.38
2023-06-17T00:49:54.396Z,242.39
2023-06-17T00:50:54.414Z,243.73
2023-06-17T00:52:13.396Z,242.95
2023-06-17T00:52:55.402Z,243.03
2023-06-17T00:53:54.404Z,243.06
2023-06-17T00:54:54.366Z,242.58
2023-06-17T00:55:54.373Z,243.40
2023-06-17T00:56:54.410Z,243.54
2023-06-17T00:57:54.413Z,242.91
2023-06-17T00:58:54.358Z,242.58
2023-06-17T00:59:54.367Z,242.58
2023-06-17T01:00:54.359Z,242.13
2023-06-17T01:01:54.356Z,242.66
2023-06-17T01:02:54.394Z,242.32
2023-06-17T01:03:54.383Z,242.59
2023-06-17T01:04:54.338Z,241.50
2023-06-17T01:05:54.295Z,242.01
2023-06-17T01:06:54.306Z,242.53
2023-06-17T01:07:54.329Z,240.67
2023-06-17T01:08:54.301Z,241.82
2023-06-17T01:09:54.308Z,241.89
2023-06-17T01:10:57.065Z,241.62
2023-06-17T01:11:54.279Z,241.70
2023-06-17T01:12:54.290Z,241.81
2023-06-17T01:13:54.260Z,241.99
2023-06-17T01:14:54.286Z,242.07
2023-06-17T01:15:54.326Z,241.84
2023-06-17T01:16:54.242Z,241.78
2023-06-17T01:17:54.273Z,241.46
2023-06-17T01:18:54.244Z,242.01
2023-06-17T01:19:54.225Z,242.12
2023-06-17T01:20:54.210Z,240.99
2023-06-17T01:21:54.208Z,241.08
2023-06-17T01:22:54.189Z,242.09
2023-06-17T01:23:54.429Z,241.84
2023-06-17T01:24:54.173Z,241.73
2023-06-17T01:25:54.178Z,241.16
2023-06-17T01:26:54.188Z,241.40
2023-06-17T01:27:54.181Z,241.61
2023-06-17T01:28:54.168Z,241.94
2023-06-17T01:29:54.132Z,241.47
2023-06-17T01:30:54.169Z,241.07
2023-06-17T01:31:54.155Z,241.41
2023-06-17T01:32:54.184Z,241.28
2023-06-17T01:33:54.167Z,240.52
2023-06-17T01:34:54.136Z,240.54
2023-06-17T01:35:54.119Z,240.94
2023-06-17T01:36:54.118Z,240.85
2023-06-17T01:37:54.114Z,240.11
2023-06-17T01:38:54.111Z,240.54
2023-06-17T01:39:54.087Z,241.43
2023-06-17T01:40:54.086Z,240.52
2023-06-17T01:41:54.097Z,240.94
2023-06-17T01:42:54.093Z,239.75
2023-06-17T01:43:54.076Z,240.25
2023-06-17T01:44:54.053Z,239.68
2023-06-17T01:45:54.101Z,240.61
2023-06-17T01:46:54.059Z,240.67
2023-06-17T01:47:54.178Z,240.30
2023-06-17T01:48:54.021Z,239.96
2023-06-17T01:49:54.019Z,240.16
2023-06-17T01:50:54.039Z,241.34
2023-06-17T01:51:54.045Z,240.60
2023-06-17T01:52:54.041Z,240.04
2023-06-17T01:53:53.988Z,240.08
2023-06-17T01:54:53.975Z,239.85
2023-06-17T01:55:54.031Z,239.14
2023-06-17T01:56:53.993Z,239.71
2023-06-17T01:57:53.971Z,239.70
2023-06-17T01:58:53.992Z,239.85
2023-06-17T01:59:53.989Z,240.51
2023-06-17T02:00:53.996Z,239.89
2023-06-17T02:01:53.949Z,239.18
2023-06-17T02:02:54.059Z,240.00
2023-06-17T02:03:54.074Z,240.56
2023-06-17T02:04:54.019Z,239.71
2023-06-17T02:05:54.046Z,238.43
2023-06-17T02:06:54.033Z,239.36
2023-06-17T02:07:54.117Z,238.75
2023-06-17T02:08:54.089Z,240.02
2023-06-17T02:09:54.108Z,239.74
2023-06-17T02:10:54.126Z,239.02
2023-06-17T02:11:54.129Z,238.73
2023-06-17T02:12:54.140Z,238.25
2023-06-17T02:13:54.156Z,238.48
2023-06-17T02:14:54.206Z,238.95
2023-06-17T02:15:54.242Z,238.96
2023-06-17T02:16:54.213Z,238.94
2023-06-17T02:17:54.293Z,239.05
2023-06-17T02:18:54.232Z,238.92
2023-06-17T02:19:54.287Z,239.05
2023-06-17T02:20:54.325Z,238.64
2023-06-17T02:21:54.296Z,237.83
2023-06-17T02:22:54.313Z,237.79
2023-06-17T02:23:54.432Z,238.63
2023-06-17T02:24:54.335Z,238.08
2023-06-17T02:25:54.350Z,238.87
2023-06-17T02:26:54.392Z,239.40
2023-06-17T02:27:54.386Z,238.75
2023-06-17T02:28:54.404Z,238.77
2023-06-17T02:29:54.439Z,238.24
2023-06-17T02:30:54.450Z,238.32
2023-06-17T02:31:54.454Z,238.38
2023-06-17T02:32:54.535Z,237.67
2023-06-17T02:33:54.488Z,238.08
2023-06-17T02:34:54.524Z,238.42
2023-06-17T02:35:54.539Z,238.58
2023-06-17T02:36:54.535Z,237.06
2023-06-17T02:37:54.543Z,238.58
2023-06-17T02:38:54.560Z,237.16
2023-06-17T02:39:54.590Z,236.45
2023-06-17T02:40:54.588Z,236.66
2023-06-17T02:41:54.643Z,237.14
2023-06-17T02:42:54.632Z,237.56
2023-06-17T02:43:54.621Z,237.72
2023-06-17T02:44:54.671Z,238.10
2023-06-17T02:45:54.683Z,237.28
2023-06-17T02:46:54.758Z,237.92
2023-06-17T02:47:54.800Z,237.48
2023-06-17T02:48:54.762Z,237.92
2023-06-17T02:49:54.759Z,238.06
2023-06-17T02:50:54.772Z,238.53
2023-06-17T02:51:54.766Z,237.43
2023-06-17T02:52:54.807Z,237.70
2023-06-17T02:53:54.818Z,237.22
2023-06-17T02:54:54.846Z,236.67
2023-06-17T02:55:54.886Z,236.69
2023-06-17T02:56:54.901Z,237.12
2023-06-17T02:57:54.907Z,236.36
2023-06-17T02:58:54.921Z,236.49
2023-06-17T02:59:54.922Z,236.24
2023-06-17T03:00:54.996Z,236.72
2023-06-17T03:01:54.977Z,235.72
2023-06-17T03:02:55.097Z,235.49
2023-06-17T03:03:54.953Z,236.50
2023-06-17T03:04:55.035Z,236.21
2023-06-17T03:05:54.994Z,235.78
2023-06-17T03:06:55.062Z,236.04
2023-06-17T03:07:55.069Z,236.32
2023-06-17T03:08:55.104Z,237.00
2023-06-17T03:09:55.109Z,236.46
2023-06-17T03:10:55.128Z,236.90
2023-06-17T03:11:55.146Z,235.63
2023-06-17T03:12:55.175Z,236.02
2023-06-17T03:13:55.187Z,234.75
2023-06-17T03:14:55.202Z,235.92
2023-06-17T03:15:55.202Z,235.01
2023-06-17T03:16:55.291Z,235.72
2023-06-17T03:17:55.354Z,234.64
2023-06-17T03:18:55.275Z,234.75
2023-06-17T03:19:55.268Z,235.44
2023-06-17T03:20:55.320Z,235.20
2023-06-17T03:21:56.687Z,234.78
2023-06-17T03:22:55.321Z,235.25
2023-06-17T03:23:55.396Z,234.63
2023-06-17T03:24:55.369Z,234.97
2023-06-17T03:25:55.371Z,235.15
2023-06-17T03:26:55.420Z,234.63
2023-06-17T03:27:55.438Z,233.69
2023-06-17T03:28:55.432Z,234.51
2023-06-17T03:29:55.429Z,233.73
2023-06-17T03:30:55.437Z,234.57
2023-06-17T03:31:55.503Z,233.23
2023-06-17T03:32:55.656Z,235.76
2023-06-17T03:33:55.541Z,234.74
2023-06-17T03:34:55.544Z,234.02
2023-06-17T03:35:55.563Z,233.40
2023-06-17T03:36:55.574Z,233.30
2023-06-17T03:37:55.604Z,233.74
2023-06-17T03:38:55.601Z,233.47
2023-06-17T03:39:55.641Z,233.63
2023-06-17T03:40:55.648Z,234.38
2023-06-17T03:41:55.681Z,233.18
2023-06-17T03:42:55.721Z,233.90
2023-06-17T03:43:55.736Z,233.92
2023-06-17T03:44:55.755Z,233.39
2023-06-17T03:45:55.756Z,233.92
2023-06-17T03:46:55.780Z,233.57
2023-06-17T03:47:55.851Z,233.84
2023-06-17T03:48:55.852Z,233.53
2023-06-17T03:49:55.855Z,232.64
2023-06-17T03:50:55.885Z,233.18
2023-06-17T03:51:55.896Z,233.14
2023-06-17T03:52:55.906Z,233.27
2023-06-17T03:53:55.939Z,231.95
2023-06-17T03:54:55.938Z,232.71
2023-06-17T03:55:56.007Z,232.97
2023-06-17T03:56:56.008Z,231.84
2023-06-17T03:57:56.027Z,231.85
2023-06-17T03:58:56.084Z,231.98
2023-06-17T03:59:56.085Z,233.08
2023-06-17T04:00:56.095Z,231.98
2023-06-17T04:01:56.107Z,231.99
2023-06-17T04:02:56.197Z,232.01
2023-06-17T04:03:56.258Z,232.64
2023-06-17T04:04:56.159Z,233.06
2023-06-17T04:05:56.169Z,231.26
2023-06-17T04:06:56.210Z,231.89
2023-06-17T04:07:56.206Z,232.35
2023-06-17T04:08:56.234Z,233.19
2023-06-17T04:10:06.540Z,232.52
2023-06-17T04:10:57.254Z,232.57
2023-06-17T04:11:56.218Z,232.58
2023-06-17T04:12:56.221Z,231.67
2023-06-17T04:13:56.228Z,231.99
2023-06-17T04:14:56.243Z,231.76
2023-06-17T04:15:56.217Z,231.51
2023-06-17T04:16:56.204Z,231.60
2023-06-17T04:17:58.292Z,231.80
2023-06-17T04:18:56.181Z,230.51
2023-06-17T04:19:56.182Z,230.86
2023-06-17T04:20:56.175Z,232.51
2023-06-17T04:21:56.194Z,231.60
2023-06-17T04:22:56.228Z,229.47
2023-06-17T04:23:56.231Z,229.80
2023-06-17T04:24:56.240Z,231.16
2023-06-17T04:25:56.265Z,230.70
2023-06-17T04:26:56.262Z,229.97
2023-06-17T04:27:56.295Z,229.55
2023-06-17T04:28:56.335Z,231.46
2023-06-17T04:29:56.337Z,230.41
2023-06-17T04:30:56.341Z,231.24
2023-06-17T04:31:56.397Z,229.80
2023-06-17T04:32:56.490Z,230.37
2023-06-17T04:33:56.399Z,229.04
2023-06-17T04:34:56.650Z,229.86
2023-06-17T04:35:56.422Z,229.67
2023-06-17T04:36:56.445Z,230.48
2023-06-17T04:37:56.436Z,229.38
2023-06-17T04:38:56.438Z,229.73
2023-06-17T04:39:56.409Z,229.29
2023-06-17T04:40:56.472Z,229.25
2023-06-17T04:41:56.429Z,228.94
2023-06-17T04:42:56.431Z,229.68
2023-06-17T04:43:56.430Z,229.63
2023-06-17T04:44:56.439Z,229.09
2023-06-17T04:45:56.464Z,227.51
2023-06-17T04:46:56.490Z,228.91
2023-06-17T04:47:56.514Z,228.26
2023-06-17T04:48:56.433Z,228.71
2023-06-17T04:49:56.462Z,227.03
2023-06-17T04:50:56.473Z,227.55
2023-06-17T04:51:56.483Z,227.23
2023-06-17T04:52:56.438Z,226.36
2023-06-17T04:53:56.457Z,227.46
2023-06-17T04:54:56.453Z,226.45
2023-06-17T04:55:56.447Z,226.90
2023-06-17T04:56:56.452Z,226.56
2023-06-17T04:57:56.466Z,226.98
2023-06-17T04:58:56.468Z,226.29
2023-06-17T04:59:56.446Z,227.01
2023-06-17T05:00:56.542Z,225.91
2023-06-17T05:01:56.520Z,226.43
2023-06-17T05:02:56.554Z,226.34
2023-06-17T05:03:56.556Z,226.09
2023-06-17T05:04:56.538Z,225.32
2023-06-17T05:05:56.621Z,226.32
2023-06-17T05:06:56.621Z,226.30
2023-06-17T05:07:56.646Z,226.87
2023-06-17T05:08:56.721Z,225.21
2023-06-17T05:09:56.784Z,226.22
2023-06-17T05:10:56.829Z,226.00
2023-06-17T05:11:56.946Z,224.49
2023-06-17T05:12:56.946Z,225.62
2023-06-17T05:13:57.037Z,224.50
2023-06-17T05:14:57.098Z,225.58
2023-06-17T05:15:57.148Z,224.99
2023-06-17T05:16:57.269Z,224.79
2023-06-17T05:17:57.285Z,223.88
2023-06-17T05:18:57.318Z,224.93
2023-06-17T05:19:57.390Z,223.81
2023-06-17T05:20:57.422Z,224.40
2023-06-17T05:21:57.534Z,224.04
2023-06-17T05:22:57.537Z,224.39
2023-06-17T05:23:57.634Z,224.14
2023-06-17T05:24:57.650Z,224.35
2023-06-17T05:25:57.758Z,224.25
2023-06-17T05:26:57.758Z,224.71
2023-06-17T05:27:57.814Z,222.39
2023-06-17T05:28:57.883Z,223.11
2023-06-17T05:29:57.921Z,223.30
2023-06-17T05:30:58.005Z,223.95
2023-06-17T05:31:58.055Z,224.85
2023-06-17T05:32:58.188Z,223.02
2023-06-17T05:33:58.213Z,223.35
2023-06-17T05:34:58.200Z,224.20
2023-06-17T05:35:58.289Z,224.59
2023-06-17T05:36:58.349Z,224.05
2023-06-17T05:37:58.377Z,223.27
2023-06-17T05:38:58.437Z,222.46
2023-06-17T05:39:58.493Z,223.49
2023-06-17T05:40:58.570Z,222.98
2023-06-17T05:41:58.629Z,222.02
2023-06-17T05:42:58.646Z,223.51
2023-06-17T05:43:58.715Z,221.77
2023-06-17T05:44:58.786Z,222.52
2023-06-17T05:45:58.886Z,223.21
2023-06-17T05:46:58.911Z,224.47
2023-06-17T05:47:58.962Z,222.12
2023-06-17T05:48:59.025Z,222.67
2023-06-17T05:49:59.023Z,222.94
2023-06-17T05:50:59.082Z,221.68
2023-06-17T05:51:59.142Z,222.73
2023-06-17T05:52:59.214Z,221.98
2023-06-17T05:53:59.226Z,222.41
2023-06-17T05:54:59.292Z,222.76
2023-06-17T05:55:59.322Z,222.19
2023-06-17T05:56:59.388Z,222.00
2023-06-17T05:57:59.449Z,223.96
2023-06-17T05:58:59.507Z,224.14
2023-06-17T05:59:59.553Z,222.71
2023-06-17T06:00:59.609Z,222.78
2023-06-17T06:01:59.852Z,222.96
2023-06-17T06:02:59.856Z,222.83
2023-06-17T06:03:59.858Z,222.42
2023-06-17T06:04:59.845Z,222.45
2023-06-17T06:05:59.905Z,222.96
2023-06-17T06:06:59.979Z,222.20
2023-06-17T06:08:00.065Z,222.88
2023-06-17T06:09:00.126Z,223.25
2023-06-17T06:10:00.202Z,224.10
2023-06-17T06:11:00.250Z,223.05
2023-06-17T06:12:00.312Z,224.30
2023-06-17T06:13:00.353Z,223.52
2023-06-17T06:14:00.444Z,223.04
2023-06-17T06:15:00.507Z,223.25
2023-06-17T06:16:00.569Z,223.80
2023-06-17T06:17:00.649Z,222.15
2023-06-17T06:18:00.758Z,223.60
2023-06-17T06:19:00.773Z,222.49
2023-06-17T06:20:00.788Z,223.69
2023-06-17T06:21:00.860Z,222.19
2023-06-17T06:22:00.933Z,221.71
2023-06-17T06:23:01.025Z,222.47
2023-06-17T06:24:01.113Z,222.35
2023-06-17T06:25:01.138Z,223.05
2023-06-17T06:26:01.176Z,223.16
2023-06-17T06:27:01.246Z,222.78
2023-06-17T06:28:01.276Z,222.02
2023-06-17T06:29:01.342Z,222.88
2023-06-17T06:30:01.406Z,223.19
2023-06-17T06:31:01.474Z,222.02
2023-06-17T06:32:01.529Z,221.99
2023-06-17T06:33:01.586Z,221.78
2023-06-17T06:34:01.632Z,221.41
2023-06-17T06:35:01.711Z,220.70
2023-06-17T06:36:01.757Z,220.43
2023-06-17T06:37:01.776Z,220.71
2023-06-17T06:38:01.831Z,220.05
2023-06-17T06:39:01.884Z,222.70
2023-06-17T06:40:01.948Z,220.53
2023-06-17T06:41:02.001Z,222.47
2023-06-17T06:42:02.131Z,221.51
2023-06-17T06:43:02.122Z,220.43
2023-06-17T06:44:02.148Z,221.40
2023-06-17T06:45:02.265Z,221.23
2023-06-17T06:46:02.303Z,220.84
2023-06-17T06:47:02.331Z,220.60
2023-06-17T06:48:02.485Z,221.21
2023-06-17T06:49:02.469Z,221.10
2023-06-17T06:50:02.510Z,218.97
2023-06-17T06:51:02.588Z,220.18
2023-06-17T06:52:02.637Z,220.12
2023-06-17T06:53:02.678Z,221.36
2023-06-17T06:54:02.778Z,220.58
2023-06-17T06:55:02.831Z,220.31
2023-06-17T06:56:02.883Z,218.07
2023-06-17T06:57:02.899Z,219.26
2023-06-17T06:58:02.965Z,217.84
2023-06-17T06:59:03.018Z,218.29
2023-06-17T07:00:03.056Z,217.07
2023-06-17T07:01:03.121Z,218.53
2023-06-17T07:02:03.107Z,217.23
2023-06-17T07:03:03.163Z,217.90
2023-06-17T07:04:03.170Z,217.84
2023-06-17T07:05:03.261Z,218.10
2023-06-17T07:06:03.261Z,217.87
2023-06-17T07:07:03.259Z,218.24
2023-06-17T07:08:03.358Z,216.61
2023-06-17T07:09:03.341Z,217.02
2023-06-17T07:10:03.357Z,215.50
2023-06-17T07:11:03.404Z,217.97
2023-06-17T07:12:03.434Z,216.11
2023-06-17T07:13:03.462Z,216.41
2023-06-17T07:14:03.515Z,217.12
2023-06-17T07:15:03.490Z,216.82
2023-06-17T07:16:03.559Z,216.68
2023-06-17T07:17:03.651Z,217.46
2023-06-17T07:18:03.671Z,216.81
2023-06-17T07:19:03.591Z,216.74
2023-06-17T07:20:03.602Z,216.10
2023-06-17T07:21:03.632Z,217.06
2023-06-17T07:22:03.659Z,216.67
2023-06-17T07:23:03.656Z,216.68
2023-06-17T07:24:03.694Z,216.16
2023-06-17T07:25:03.701Z,216.50
2023-06-17T07:26:03.706Z,217.03
2023-06-17T07:27:03.702Z,216.53
2023-06-17T07:28:03.735Z,216.33
2023-06-17T07:29:03.742Z,216.40
2023-06-17T07:30:03.769Z,216.84
2023-06-17T07:31:03.903Z,217.22
2023-06-17T07:32:03.897Z,217.06
2023-06-17T07:33:03.905Z,215.84
2023-06-17T07:34:03.925Z,215.85
2023-06-17T07:35:03.905Z,216.27
2023-06-17T07:36:03.919Z,216.33
2023-06-17T07:37:03.910Z,216.13
2023-06-17T07:38:03.915Z,217.04
2023-06-17T07:39:03.940Z,216.08
2023-06-17T07:40:03.951Z,216.26
2023-06-17T07:41:03.974Z,217.76
2023-06-17T07:42:04.015Z,217.16
2023-06-17T07:43:04.012Z,217.64
2023-06-17T07:44:04.022Z,215.99
2023-06-17T07:45:04.032Z,216.59
2023-06-17T07:46:05.505Z,217.38
2023-06-17T07:47:04.040Z,218.98
2023-06-17T07:48:04.101Z,217.35
2023-06-17T07:49:04.051Z,217.04
2023-06-17T07:50:04.035Z,216.75
2023-06-17T07:51:03.990Z,216.83
2023-06-17T07:52:04.026Z,216.38
2023-06-17T07:53:04.031Z,216.87
2023-06-17T07:54:04.042Z,217.07
2023-06-17T07:55:06.182Z,216.62
2023-06-17T07:56:04.003Z,216.79
2023-06-17T07:57:03.973Z,217.07
2023-06-17T07:58:03.954Z,217.55
2023-06-17T07:59:03.971Z,217.85
2023-06-17T08:00:03.946Z,218.72
2023-06-17T08:01:03.948Z,215.80
2023-06-17T08:02:04.733Z,218.14
2023-06-17T08:03:04.125Z,217.78
2023-06-17T08:04:04.033Z,217.04
2023-06-17T08:05:03.929Z,216.33
2023-06-17T08:06:03.947Z,215.97
2023-06-17T08:07:03.934Z,216.22
2023-06-17T08:08:03.930Z,218.45
2023-06-17T08:09:03.887Z,216.81
2023-06-17T08:10:04.576Z,217.40
2023-06-17T08:11:03.918Z,217.88
2023-06-17T08:12:03.877Z,216.82
2023-06-17T08:13:03.883Z,216.71
2023-06-17T08:14:03.873Z,216.55
2023-06-17T08:15:03.889Z,215.34
2023-06-17T08:16:03.930Z,216.53
2023-06-17T08:17:03.884Z,216.19
2023-06-17T08:18:03.993Z,215.59
2023-06-17T08:19:03.882Z,215.10
2023-06-17T08:20:03.904Z,216.29
2023-06-17T08:21:03.941Z,215.48
2023-06-17T08:22:03.934Z,216.34
2023-06-17T08:23:03.946Z,216.39
2023-06-17T08:24:04.015Z,217.33
2023-06-17T08:25:04.011Z,215.73
2023-06-17T08:26:03.981Z,214.82
2023-06-17T08:27:04.033Z,215.64
2023-06-17T08:28:04.031Z,215.65
2023-06-17T08:29:04.022Z,216.94
2023-06-17T08:30:04.025Z,216.57
2023-06-17T08:31:04.035Z,217.66
2023-06-17T08:32:04.035Z,215.74
2023-06-17T08:33:04.077Z,217.88
2023-06-17T08:34:04.065Z,217.55
2023-06-17T08:35:04.129Z,216.52
2023-06-17T08:36:04.150Z,218.14
2023-06-17T08:37:04.156Z,217.80
2023-06-17T08:38:04.184Z,218.00
2023-06-17T08:39:04.223Z,217.91
2023-06-17T08:40:04.225Z,218.20
2023-06-17T08:41:04.241Z,216.94
2023-06-17T08:42:04.293Z,217.80
2023-06-17T08:43:04.327Z,216.96
2023-06-17T08:44:04.312Z,218.12
2023-06-17T08:45:04.353Z,217.95
2023-06-17T08:46:04.384Z,219.28
2023-06-17T08:47:04.378Z,219.29
2023-06-17T08:48:04.493Z,217.98
2023-06-17T08:49:04.469Z,216.81
2023-06-17T08:50:04.492Z,216.45
2023-06-17T08:51:04.526Z,218.73
2023-06-17T08:52:04.576Z,217.31
2023-06-17T08:53:04.622Z,215.03
2023-06-17T08:54:04.695Z,217.09
2023-06-17T08:55:04.700Z,216.12
2023-06-17T08:56:04.804Z,219.15
2023-06-17T08:57:04.739Z,216.78
2023-06-17T08:58:04.781Z,215.85
2023-06-17T08:59:04.797Z,216.47
2023-06-17T09:00:04.818Z,216.77
2023-06-17T09:01:04.858Z,217.96
2023-06-17T09:02:04.826Z,215.77
2023-06-17T09:03:04.950Z,215.68
2023-06-17T09:04:04.872Z,215.82
2023-06-17T09:05:04.938Z,215.19
2023-06-17T09:06:04.891Z,216.57
2023-06-17T09:07:04.922Z,216.91
2023-06-17T09:08:04.913Z,216.12
2023-06-17T09:09:04.959Z,216.28
2023-06-17T09:10:04.958Z,216.10
2023-06-17T09:11:04.976Z,216.25
2023-06-17T09:12:04.979Z,215.77
2023-06-17T09:13:05.003Z,214.19
2023-06-17T09:14:05.107Z,215.75
2023-06-17T09:15:05.020Z,214.13
2023-06-17T09:16:05.039Z,215.98
2023-06-17T09:17:05.107Z,214.33
2023-06-17T09:18:05.112Z,215.70
2023-06-17T09:19:05.110Z,214.75
2023-06-17T09:20:05.081Z,215.78
2023-06-17T09:21:05.119Z,214.79
2023-06-17T09:22:05.117Z,215.08
2023-06-17T09:23:05.120Z,215.80
2023-06-17T09:24:05.187Z,214.15
2023-06-17T09:25:05.126Z,214.36
2023-06-17T09:26:05.165Z,215.31
2023-06-17T09:27:05.193Z,215.88
2023-06-17T09:28:16.983Z,215.72
2023-06-17T09:29:06.225Z,215.83
2023-06-17T09:30:05.175Z,215.81
2023-06-17T09:31:05.195Z,215.66
2023-06-17T09:32:05.171Z,215.79
2023-06-17T09:33:05.173Z,215.72
2023-06-17T09:34:05.189Z,214.67
2023-06-17T09:35:05.132Z,216.06
2023-06-17T09:36:05.163Z,215.60
2023-06-17T09:37:05.099Z,215.73
2023-06-17T09:38:05.245Z,215.78
2023-06-17T09:39:05.091Z,214.93
2023-06-17T09:40:05.097Z,214.50
2023-06-17T09:41:05.123Z,214.92
2023-06-17T09:42:05.112Z,214.99
2023-06-17T09:43:25.174Z,215.41
2023-06-17T09:44:06.050Z,215.55
2023-06-17T09:45:05.087Z,215.55
2023-06-17T09:46:05.069Z,215.56
2023-06-17T09:47:05.048Z,215.63
2023-06-17T09:48:05.077Z,215.46
2023-06-17T09:49:05.063Z,216.01
2023-06-17T09:50:05.023Z,214.87
2023-06-17T09:51:05.025Z,213.77
2023-06-17T09:52:05.000Z,215.46
2023-06-17T09:53:05.030Z,215.91
2023-06-17T09:54:05.038Z,214.68
2023-06-17T09:55:05.013Z,216.55
2023-06-17T09:56:05.018Z,214.91
2023-06-17T09:57:04.973Z,215.39
2023-06-17T09:58:04.986Z,214.83
2023-06-17T09:59:04.994Z,214.18
2023-06-17T10:00:04.984Z,215.17
2023-06-17T10:01:04.956Z,215.37
2023-06-17T10:02:04.983Z,216.07
2023-06-17T10:03:05.064Z,214.12
2023-06-17T10:04:04.985Z,215.17
2023-06-17T10:05:04.981Z,215.35
2023-06-17T10:06:04.951Z,214.21
2023-06-17T10:07:04.959Z,215.21
2023-06-17T10:08:04.992Z,214.55
2023-06-17T10:09:05.050Z,215.08
2023-06-17T10:10:05.027Z,214.32
2023-06-17T10:11:05.066Z,216.45
2023-06-17T10:12:05.058Z,213.17
2023-06-17T10:13:05.119Z,214.65
2023-06-17T10:14:05.166Z,215.08
2023-06-17T10:15:05.099Z,215.78
2023-06-17T10:16:05.109Z,215.74
2023-06-17T10:17:05.129Z,214.52
2023-06-17T10:18:05.231Z,214.27
2023-06-17T10:19:05.197Z,214.99
2023-06-17T10:20:05.196Z,214.72
2023-06-17T10:21:05.258Z,214.30
2023-06-17T10:22:05.250Z,215.72
2023-06-17T10:23:05.228Z,213.15
2023-06-17T10:24:05.309Z,215.04
2023-06-17T10:25:05.337Z,215.25
2023-06-17T10:26:05.293Z,215.68
2023-06-17T10:27:05.616Z,216.03
2023-06-17T10:28:05.372Z,215.72
2023-06-17T10:29:05.383Z,215.81
2023-06-17T10:30:05.477Z,215.62
2023-06-17T10:31:05.446Z,214.48
2023-06-17T10:32:06.143Z,216.57
2023-06-17T10:33:05.534Z,215.60
2023-06-17T10:34:05.562Z,214.70
2023-06-17T10:35:05.601Z,215.47
2023-06-17T10:36:05.608Z,215.76
2023-06-17T10:37:05.617Z,216.61
2023-06-17T10:38:05.667Z,214.89
2023-06-17T10:39:05.647Z,216.95
2023-06-17T10:40:05.690Z,216.10
2023-06-17T10:41:05.708Z,216.05
2023-06-17T10:42:05.930Z,217.32
2023-06-17T10:43:05.765Z,215.21
2023-06-17T10:44:05.773Z,214.85
2023-06-17T10:45:05.798Z,217.07
2023-06-17T10:46:05.865Z,215.70
2023-06-17T10:47:05.839Z,216.01
2023-06-17T10:48:05.926Z,215.43
2023-06-17T10:49:05.897Z,217.21
2023-06-17T10:50:05.932Z,216.45
2023-06-17T10:51:05.944Z,216.02
2023-06-17T10:52:05.962Z,217.30
2023-06-17T10:53:05.981Z,216.93
2023-06-17T10:54:06.058Z,215.41
2023-06-17T10:55:06.047Z,216.27
2023-06-17T10:56:06.078Z,216.97
2023-06-17T10:57:06.121Z,216.29
2023-06-17T10:58:06.094Z,214.38
2023-06-17T10:59:06.204Z,216.88
2023-06-17T11:00:06.177Z,215.71
2023-06-17T11:01:06.197Z,214.66
2023-06-17T11:02:06.318Z,218.28
2023-06-17T11:03:06.339Z,214.92
2023-06-17T11:04:06.341Z,217.10
2023-06-17T11:05:06.434Z,216.02
2023-06-17T11:06:06.329Z,214.77
2023-06-17T11:07:06.369Z,214.71
2023-06-17T11:08:06.399Z,216.18
2023-06-17T11:09:06.415Z,217.85
2023-06-17T11:10:06.588Z,218.18
2023-06-17T11:11:06.513Z,217.17
2023-06-17T11:12:06.544Z,216.96
2023-06-17T11:13:06.533Z,217.02
2023-06-17T11:14:06.558Z,215.75
2023-06-17T11:15:06.592Z,218.05
2023-06-17T11:16:06.651Z,217.65
2023-06-17T11:17:06.674Z,218.01
2023-06-17T11:18:06.762Z,218.59
2023-06-17T11:19:06.790Z,216.65
2023-06-17T11:20:06.737Z,215.81
2023-06-17T11:21:06.770Z,218.14
2023-06-17T11:22:06.806Z,216.82
2023-06-17T11:23:06.818Z,216.87
2023-06-17T11:24:06.842Z,217.34
2023-06-17T11:25:06.842Z,216.32
2023-06-17T11:26:06.876Z,216.34
2023-06-17T11:27:07.032Z,215.75
2023-06-17T11:28:06.941Z,216.13
2023-06-17T11:29:06.948Z,215.48
2023-06-17T11:30:06.991Z,214.48
2023-06-17T11:31:07.079Z,215.94
2023-06-17T11:32:06.996Z,216.63
2023-06-17T11:33:07.773Z,216.46
2023-06-17T11:34:07.054Z,215.82
2023-06-17T11:35:07.088Z,215.92
2023-06-17T11:36:07.113Z,215.85
2023-06-17T11:37:07.123Z,217.22
2023-06-17T11:38:07.221Z,215.72
2023-06-17T11:39:07.204Z,217.44
2023-06-17T11:40:07.190Z,215.81
2023-06-17T11:41:07.231Z,216.06
2023-06-17T11:42:07.242Z,214.46
2023-06-17T11:43:07.278Z,215.26
2023-06-17T11:44:07.332Z,215.31
2023-06-17T11:45:07.298Z,215.12
2023-06-17T11:46:07.372Z,215.84
2023-06-17T11:47:07.404Z,214.97
2023-06-17T11:48:07.414Z,215.51
2023-06-17T11:49:07.403Z,216.30
2023-06-17T11:50:07.384Z,216.39
2023-06-17T11:51:07.438Z,215.35
2023-06-17T11:52:07.438Z,215.81
2023-06-17T11:53:07.494Z,214.84
2023-06-17T11:54:07.521Z,216.73
2023-06-17T11:55:07.548Z,216.76
2023-06-17T11:56:07.556Z,216.69
2023-06-17T11:57:07.589Z,216.72
2023-06-17T11:58:07.629Z,214.93
2023-06-17T11:59:07.637Z,214.47
2023-06-17T12:00:07.666Z,215.34
2023-06-17T12:01:07.721Z,216.33
2023-06-17T12:02:07.902Z,215.50
2023-06-17T12:03:07.827Z,213.83
2023-06-17T12:04:07.858Z,214.69
2023-06-17T12:05:07.830Z,215.84
2023-06-17T12:06:07.847Z,215.05
2023-06-17T12:07:07.922Z,216.20
2023-06-17T12:08:07.945Z,216.50
2023-06-17T12:09:07.954Z,215.89
2023-06-17T12:10:07.985Z,216.73
2023-06-17T12:11:07.988Z,215.33
2023-06-17T12:12:08.030Z,214.43
2023-06-17T12:13:08.042Z,215.26
2023-06-17T12:14:08.053Z,215.41
2023-06-17T12:15:15.624Z,217.46
2023-06-17T12:16:09.038Z,217.51
2023-06-17T12:17:08.075Z,216.82
2023-06-17T12:18:08.086Z,216.41
2023-06-17T12:19:08.062Z,215.50
2023-06-17T12:20:08.014Z,217.05
2023-06-17T12:21:08.032Z,216.68
2023-06-17T12:22:08.073Z,216.39
2023-06-17T12:23:08.029Z,218.22
2023-06-17T12:24:08.054Z,217.39
2023-06-17T12:25:08.024Z,215.88
2023-06-17T12:26:07.993Z,216.17
2023-06-17T12:27:07.978Z,217.40
2023-06-17T12:28:07.980Z,216.12
2023-06-17T12:29:20.332Z,217.90